Moscow Mills, MO (63362)

9:26 PM CDT on August 27, 2015 (GMT -0500)
Settlers Pointe | | Change Station
CLOSE
Current Station
Personal Weather Station
Location: Wentzville, MO
Elevation: 536 ft
Nearby Weather Stations

Elev 536 ft 38.87 °N, 90.89 °W | Updated 50 seconds ago

Partly Cloudy
Partly Cloudy
62.5 °F
Feels Like 62.5 °F
N
0.0
Wind Variable Wind from ESE
Gusts 0.0 mph

Today
High -- | Low -- °F
--% Chance of Precip.
Yesterday
High -- | Low -- °F
Precip. -- in
6:27 AM 7:41 PM
Waxing Gibbous, 96% visible
Pressure 30.05 in
Visibility 10.0 miles
Clouds Clear
Dew Point 58 °F
Humidity 84%
Rainfall 0.00 in
Snow Depth Not available.
UV 0 out of 12
Pollen 9.10 out of 12
Air Quality Not available.
Flu Activity Not available.
METAR KSUS 280154Z 00000KT 10SM CLR 20/17 A3006 RMK AO2 SLP174 T02000167 $
Pressure 30.05 in
Visibility 10.0 miles
Clouds Clear
Dew Point 58 °F
Humidity 84%
Rainfall 0.00 in
Snow Depth Not available.
UV 0 out of 12
Pollen 9.10 out of 12
Air Quality Not available.
Flu Activity Not available.
METAR KSUS 280154Z 00000KT 10SM CLR 20/17 A3006 RMK AO2 SLP174 T02000167 $

10-Day Weather Forecast

×

Almanac

Astronomy

Aug. 27, 2015 Rise Set
Actual Time
Civil Twilight
Nautical Twilight
Astronomical Twilight
Moon
Length of Visible Light
Length of Day
Tomorrow will be .
, % of the Moon is Illuminated

Today's Extremes

State Highs State Lows

Community

WunderPhotos

Upload Photos

1,850,301 photos uploaded!

WunderBlogs® & News

Nearby

Air Quality

  Air Quality AQ Index Pollutant
Not available.

Snow Depth

Station Depth Elevation

Earthquake Activity

City Distance Mag. Time & Date
Minimum magnitude displayed is 2.5.

Coastal Water Temperatures

Place Temperature

Stations

Nearby Weather Stations

Station Location Temp. Windchill Dew Point Humidity Wind Precip. Elev Updated Type